createdAt,value
2023-02-17T00:00:44.271Z,13.60
2023-02-17T00:05:50.954Z,13.60
2023-02-17T00:10:58.501Z,13.70
2023-02-17T00:16:01.743Z,13.60
2023-02-17T00:21:15.680Z,13.60
2023-02-17T00:26:19.555Z,13.60
2023-02-17T00:31:23.913Z,13.60
2023-02-17T00:36:28.737Z,13.60
2023-02-17T00:41:31.889Z,13.70
2023-02-17T00:46:35.186Z,13.60
2023-02-17T00:51:39.426Z,13.60
2023-02-17T00:56:42.942Z,13.60
2023-02-17T01:01:45.867Z,13.60
2023-02-17T01:06:50.126Z,13.60
2023-02-17T01:11:54.287Z,13.60
2023-02-17T01:16:57.179Z,13.70
2023-02-17T01:22:01.491Z,13.70
2023-02-17T01:27:04.517Z,13.60
2023-02-17T01:32:07.430Z,13.60
2023-02-17T01:37:11.658Z,13.60
2023-02-17T01:42:17.069Z,13.60
2023-02-17T01:47:21.347Z,13.60
2023-02-17T01:52:27.637Z,13.60
2023-02-17T01:57:33.909Z,13.50
2023-02-17T02:02:36.964Z,13.40
2023-02-17T02:07:43.822Z,13.40
2023-02-17T02:12:47.196Z,13.50
2023-02-17T02:18:04.185Z,13.40
2023-02-17T02:23:51.755Z,13.40
2023-02-17T02:29:17.657Z,13.40
2023-02-17T02:34:24.676Z,13.40
2023-02-17T02:39:35.112Z,13.30
2023-02-17T02:44:38.122Z,13.30
2023-02-17T02:49:42.420Z,13.30
2023-02-17T02:54:53.586Z,13.20
2023-02-17T03:00:08.481Z,13.20
2023-02-17T03:05:16.957Z,13.20
2023-02-17T03:10:21.183Z,13.20
2023-02-17T03:15:28.819Z,13.10
2023-02-17T03:20:37.355Z,13.20
2023-02-17T03:25:40.383Z,13.10
2023-02-17T03:30:44.228Z,13.00
2023-02-17T03:35:48.440Z,13.00
2023-02-17T03:40:53.158Z,13.00
2023-02-17T03:45:56.109Z,12.90
2023-02-17T03:51:00.408Z,12.90
2023-02-17T03:56:03.518Z,12.90
2023-02-17T04:01:06.983Z,12.90
2023-02-17T04:06:12.012Z,12.90
2023-02-17T04:11:15.325Z,12.90
2023-02-17T04:16:18.222Z,12.80
2023-02-17T04:21:22.460Z,12.80
2023-02-17T04:26:25.381Z,12.80
2023-02-17T04:31:28.434Z,12.90
2023-02-17T04:36:32.858Z,12.90
2023-02-17T04:41:35.817Z,12.80
2023-02-17T04:46:38.659Z,12.90
2023-02-17T04:51:42.854Z,12.90
2023-02-17T04:56:45.799Z,12.80
2023-02-17T05:01:48.709Z,12.80
2023-02-17T05:06:52.932Z,12.80
2023-02-17T05:11:55.838Z,12.80
2023-02-17T05:16:58.767Z,12.80
2023-02-17T05:22:03.050Z,12.80
2023-02-17T05:27:05.979Z,12.80
2023-02-17T05:32:08.940Z,12.90
2023-02-17T05:37:13.226Z,12.90
2023-02-17T05:42:16.125Z,12.80
2023-02-17T05:47:19.027Z,12.90
2023-02-17T05:52:31.801Z,12.80
2023-02-17T05:57:34.877Z,12.80
2023-02-17T06:02:38.815Z,12.80
2023-02-17T06:07:43.048Z,12.80
2023-02-17T06:12:47.030Z,12.80
2023-02-17T06:17:49.959Z,12.80
2023-02-17T06:22:54.204Z,12.80
2023-02-17T06:27:57.600Z,12.80
2023-02-17T06:33:00.592Z,12.80
2023-02-17T06:38:04.984Z,12.80
2023-02-17T06:43:08.639Z,12.90
2023-02-17T06:48:11.558Z,12.80
2023-02-17T06:53:15.763Z,12.80
2023-02-17T06:58:18.716Z,12.80
2023-02-17T07:03:21.584Z,12.80
2023-02-17T07:08:26.332Z,12.70
2023-02-17T07:13:29.193Z,12.80
2023-02-17T07:18:32.069Z,12.80
2023-02-17T07:23:38.004Z,12.80
2023-02-17T07:28:41.787Z,12.90
2023-02-17T07:33:48.648Z,12.80
2023-02-17T07:38:52.991Z,12.90
2023-02-17T07:43:57.700Z,12.90
2023-02-17T07:49:00.766Z,13.00
2023-02-17T07:54:05.349Z,13.00
2023-02-17T07:59:09.813Z,13.00
2023-02-17T08:04:12.995Z,13.10
2023-02-17T08:09:34.825Z,13.10
2023-02-17T08:14:38.625Z,13.00
2023-02-17T08:19:49.279Z,13.00
2023-02-17T08:24:53.971Z,13.10
2023-02-17T08:29:56.945Z,13.10
2023-02-17T08:35:00.077Z,13.10
2023-02-17T08:40:04.845Z,13.20
2023-02-17T08:45:08.585Z,13.20
2023-02-17T08:50:15.960Z,13.20
2023-02-17T08:55:30.448Z,13.20
2023-02-17T09:00:36.347Z,13.10
2023-02-17T09:05:40.772Z,13.20
2023-02-17T09:11:00.292Z,13.20
2023-02-17T09:16:04.112Z,13.10
2023-02-17T09:21:08.635Z,13.10
2023-02-17T09:26:15.108Z,13.00
2023-02-17T09:31:19.866Z,13.10
2023-02-17T09:36:25.066Z,13.10
2023-02-17T09:41:38.797Z,13.10
2023-02-17T09:47:00.524Z,13.00
2023-02-17T09:52:08.247Z,13.00
2023-02-17T09:57:19.693Z,13.00
2023-02-17T10:02:28.621Z,13.10
2023-02-17T10:07:35.706Z,13.00
2023-02-17T10:12:44.991Z,13.00
2023-02-17T10:18:08.968Z,13.00
2023-02-17T10:23:16.614Z,13.10
2023-02-17T10:28:31.958Z,13.10
2023-02-17T10:33:38.598Z,13.10
2023-02-17T10:38:50.406Z,13.20
2023-02-17T10:43:55.592Z,13.20
2023-02-17T10:49:00.869Z,13.30
2023-02-17T10:54:09.520Z,13.30
2023-02-17T10:59:22.144Z,13.30
2023-02-17T11:04:25.052Z,13.30
2023-02-17T11:09:32.763Z,13.30
2023-02-17T11:14:38.374Z,13.30
2023-02-17T11:19:41.406Z,13.40
2023-02-17T11:24:44.523Z,13.40
2023-02-17T11:29:48.791Z,13.50
2023-02-17T11:34:58.570Z,13.50
2023-02-17T11:40:01.636Z,13.50
2023-02-17T11:45:18.374Z,13.60
2023-02-17T11:50:40.909Z,13.60
2023-02-17T11:55:59.450Z,13.60
2023-02-17T12:01:16.237Z,13.60
2023-02-17T12:06:25.107Z,13.70
2023-02-17T12:11:37.443Z,13.60
2023-02-17T12:16:50.826Z,13.70
2023-02-17T12:22:03.515Z,13.70
2023-02-17T12:27:19.351Z,13.70
2023-02-17T12:32:37.637Z,13.70
2023-02-17T12:37:51.052Z,13.70
2023-02-17T12:42:58.811Z,13.80
2023-02-17T12:48:07.437Z,13.90
2023-02-17T12:53:19.266Z,13.90
2023-02-17T12:58:26.210Z,14.00
2023-02-17T13:03:33.077Z,14.10
2023-02-17T13:08:42.814Z,14.10
2023-02-17T13:13:45.722Z,14.20
2023-02-17T13:18:53.054Z,14.40
2023-02-17T13:24:01.280Z,14.30
2023-02-17T13:29:40.456Z,14.30
2023-02-17T13:34:46.927Z,14.40
2023-02-17T13:39:49.870Z,14.40
2023-02-17T13:44:52.910Z,14.50
2023-02-17T13:49:58.429Z,14.80
2023-02-17T13:55:03.200Z,14.60
2023-02-17T14:00:09.110Z,14.70
2023-02-17T14:05:20.584Z,14.60
2023-02-17T14:10:26.627Z,14.60
2023-02-17T14:15:30.778Z,14.60
2023-02-17T14:20:37.249Z,14.60
2023-02-17T14:25:42.599Z,14.80
2023-02-17T14:30:45.850Z,14.70
2023-02-17T14:35:55.811Z,14.70
2023-02-17T14:40:59.215Z,14.70
2023-02-17T14:46:02.832Z,14.70
2023-02-17T14:51:13.959Z,14.70
2023-02-17T15:01:40.370Z,14.80
2023-02-17T15:06:47.805Z,14.80
2023-02-17T15:11:53.026Z,14.90
2023-02-17T15:16:55.931Z,14.90
2023-02-17T15:22:12.805Z,14.90
2023-02-17T15:27:17.402Z,15.00
2023-02-17T15:32:20.400Z,14.90
2023-02-17T15:37:24.717Z,14.90
2023-02-17T15:42:28.633Z,14.90
2023-02-17T15:47:31.511Z,15.00
2023-02-17T15:52:35.764Z,15.00
2023-02-17T15:57:40.916Z,15.00
2023-02-17T16:02:43.973Z,15.00
2023-02-17T16:07:48.356Z,15.00
2023-02-17T16:12:53.066Z,15.00
2023-02-17T16:17:57.678Z,15.00
2023-02-17T16:23:02.224Z,14.90
2023-02-17T16:28:06.970Z,14.90
2023-02-17T16:33:11.659Z,15.00
2023-02-17T16:38:22.542Z,15.00
2023-02-17T16:43:30.508Z,14.90
2023-02-17T16:48:36.474Z,15.20
2023-02-17T16:53:40.717Z,15.00
2023-02-17T16:58:43.678Z,14.90
2023-02-17T17:03:46.838Z,14.80
2023-02-17T17:08:51.522Z,14.60
2023-02-17T17:13:55.180Z,14.60
2023-02-17T17:18:58.634Z,14.70
2023-02-17T17:24:03.107Z,14.70
2023-02-17T17:29:06.631Z,14.60
2023-02-17T17:34:10.006Z,14.60
2023-02-17T17:39:16.595Z,14.60
2023-02-17T17:44:20.606Z,14.60
2023-02-17T17:49:23.507Z,14.50
2023-02-17T17:54:27.948Z,14.40
2023-02-17T17:59:30.873Z,14.40
2023-02-17T18:04:34.002Z,14.40
2023-02-17T18:09:40.053Z,14.40
2023-02-17T18:14:45.234Z,14.40
2023-02-17T18:19:48.920Z,14.50
2023-02-17T18:24:53.150Z,14.40
2023-02-17T18:29:56.950Z,14.40
2023-02-17T18:34:59.828Z,14.40
2023-02-17T18:40:05.505Z,14.40
2023-02-17T18:45:09.826Z,14.40
2023-02-17T18:50:14.258Z,14.50
2023-02-17T18:55:18.630Z,14.50
2023-02-17T19:00:22.228Z,14.40
2023-02-17T19:05:28.376Z,14.50
2023-02-17T19:10:32.594Z,14.40
2023-02-17T19:15:39.494Z,14.40
2023-02-17T19:20:44.580Z,14.50
2023-02-17T19:25:49.053Z,14.30
2023-02-17T19:30:52.066Z,14.50
2023-02-17T19:35:55.312Z,14.40
2023-02-17T19:41:02.151Z,14.40
2023-02-17T19:46:06.126Z,14.40
2023-02-17T19:51:12.538Z,14.30
2023-02-17T19:56:19.522Z,14.20
2023-02-17T20:01:24.672Z,14.30
2023-02-17T20:06:29.650Z,14.20
2023-02-17T20:11:34.366Z,14.30
2023-02-17T20:16:38.961Z,14.40
2023-02-17T20:21:44.702Z,14.40
2023-02-17T20:26:53.560Z,14.40
2023-02-17T20:31:56.669Z,14.30
2023-02-17T20:37:00.700Z,14.40
2023-02-17T20:42:05.600Z,14.20
2023-02-17T20:47:08.642Z,14.30
2023-02-17T20:52:11.542Z,14.40
2023-02-17T20:57:16.573Z,14.30
2023-02-17T21:02:19.456Z,14.30
2023-02-17T21:07:22.366Z,14.10
2023-02-17T21:12:26.669Z,14.20
2023-02-17T21:17:29.561Z,14.20
2023-02-17T21:22:32.450Z,14.10
2023-02-17T21:27:37.236Z,14.10
2023-02-17T21:32:40.599Z,14.10
2023-02-17T21:37:43.852Z,14.10
2023-02-17T21:43:05.648Z,14.20
2023-02-17T21:48:08.721Z,14.20
2023-02-17T21:53:11.652Z,14.10
2023-02-17T21:58:15.903Z,14.20
2023-02-17T22:03:18.911Z,14.10
2023-02-17T22:08:21.862Z,14.10
2023-02-17T22:13:26.185Z,14.10
2023-02-17T22:18:29.745Z,14.20
2023-02-17T22:23:32.680Z,14.20
2023-02-17T22:28:37.129Z,14.20
2023-02-17T22:33:40.038Z,14.20
2023-02-17T22:38:43.379Z,14.20
2023-02-17T22:43:48.982Z,14.20
2023-02-17T22:48:52.991Z,14.20
2023-02-17T22:53:55.998Z,14.20
2023-02-17T22:59:03.806Z,14.20
2023-02-17T23:04:07.174Z,14.30
2023-02-17T23:09:14.671Z,14.30
2023-02-17T23:14:20.753Z,14.30
2023-02-17T23:19:24.242Z,14.40
2023-02-17T23:24:28.105Z,14.40
2023-02-17T23:29:33.131Z,14.40
2023-02-17T23:34:36.340Z,14.50
2023-02-17T23:39:39.360Z,14.40
2023-02-17T23:44:43.813Z,14.40
2023-02-17T23:49:46.666Z,14.50
2023-02-17T23:54:49.621Z,14.40
2023-02-17T23:59:53.901Z,14.40
